Terminal Aerodrome Forecast
Issued by NWS

Home | Current Version | Previous Version | Text Only | Print | Product List | Glossary On
Versions: 1 2 3 4 5 6 7 8 9 10 11 12 13 14 15 16 17 18 19 20 21 22 23 24 25 26 27 28 29 30 31 32 33 34 35 36
000
FTUS45 KBOU 192326
TAFBJC
TAF
KBJC 192326Z 2000/2024 15006KT P6SM SCT090 BKN140
     FM200200 02010KT P6SM SCT090 BKN120
     FM200500 29006KT P6SM FEW090 SCT140 BKN200
     FM201400 36010KT P6SM FEW070 SCT120
     FM201800 03008KT P6SM SCT070
     FM202200 06008KT P6SM SCT070 SCT120 BKN200=

USA.gov is the U.S. government's official web portal to all federal, state and local government web resources and services.